Time;durP1;ratioP1;P1;durP2;ratioP2;P2;SDS_P1;SDS_P2;PMS_P1;PMS_P2;Temp;Humidity;BMP_temperature;BMP_pressure;BME280_temperature;BME280_humidity;BME280_pressure;Samples;Min_cycle;Max_cycle;Signal;HPM_P1;HPM_P2
2023/09/04 00:00:53;;;;;;;17.45;15.48;;;14.20;92.70;;;;;;4972886;28;20237;-86
2023/09/04 00:03:19;;;;;;;17.45;15.85;;;14.10;92.70;;;;;;4972935;28;20262;-85
2023/09/04 00:05:45;;;;;;;17.80;15.98;;;14.10;92.80;;;;;;4974377;28;20174;-88
2023/09/04 00:08:11;;;;;;;23.83;17.85;;;14.10;92.80;;;;;;4972800;28;20183;-87
2023/09/04 00:10:36;;;;;;;18.52;15.82;;;14.00;92.80;;;;;;4974010;28;20205;-87
2023/09/04 00:13:02;;;;;;;16.90;15.35;;;14.10;92.80;;;;;;4972684;28;20229;-88
2023/09/04 00:15:28;;;;;;;16.13;14.27;;;14.10;92.80;;;;;;4972674;28;20175;-88
2023/09/04 00:17:53;;;;;;;16.30;14.82;;;14.00;92.60;;;;;;4974602;28;20175;-88
2023/09/04 00:20:18;;;;;;;16.38;14.77;;;14.00;92.60;;;;;;4977456;28;20218;-88
2023/09/04 00:22:44;;;;;;;16.13;14.52;;;13.90;92.50;;;;;;4977656;28;20234;-87
2023/09/04 00:25:09;;;;;;;17.95;14.98;;;14.00;92.50;;;;;;4976309;28;20175;-86
2023/09/04 00:27:35;;;;;;;16.77;15.07;;;13.90;92.40;;;;;;4976185;28;20686;-86
2023/09/04 00:30:01;;;;;;;16.13;14.73;;;14.00;92.30;;;;;;4977337;28;20261;-86
2023/09/04 00:32:26;;;;;;;18.88;14.90;;;14.00;92.30;;;;;;4976005;28;20642;-86
2023/09/04 00:34:52;;;;;;;16.88;15.20;;;13.90;92.10;;;;;;4977327;28;20532;-86
2023/09/04 00:37:17;;;;;;;16.40;15.00;;;13.80;91.90;;;;;;4977264;28;20537;-86
2023/09/04 00:39:43;;;;;;;16.75;15.32;;;13.90;92.00;;;;;;4975930;28;20636;-86
2023/09/04 00:42:10;;;;;;;15.90;14.60;;;13.80;91.80;;;;;;4975940;28;20269;-86
2023/09/04 00:44:36;;;;;;;17.27;15.88;;;13.80;91.80;;;;;;4977127;28;20171;-86
2023/09/04 00:47:01;;;;;;;16.83;15.32;;;13.80;91.60;;;;;;4975795;28;20187;-86
2023/09/04 00:49:28;;;;;;;15.00;13.57;;;13.80;91.70;;;;;;4975814;28;20222;-86
2023/09/04 00:51:55;;;;;;;14.90;13.70;;;13.80;91.50;;;;;;4975760;28;20558;-86
2023/09/04 00:54:20;;;;;;;14.25;13.13;;;13.80;91.30;;;;;;4976968;28;20318;-86
2023/09/04 00:56:48;;;;;;;14.80;13.48;;;13.70;91.20;;;;;;4977020;28;20799;-86
2023/09/04 00:59:14;;;;;;;16.80;15.27;;;13.60;90.90;;;;;;4975528;28;20245;-86
2023/09/04 01:01:40;;;;;;;22.48;20.40;;;13.40;90.50;;;;;;4976785;28;20646;-86
2023/09/04 01:04:05;;;;;;;21.55;19.35;;;13.30;90.30;;;;;;4976902;28;20185;-86
2023/09/04 01:06:31;;;;;;;20.67;17.85;;;13.30;90.20;;;;;;4976708;28;20253;-86
2023/09/04 01:08:57;;;;;;;18.00;16.38;;;13.30;90.10;;;;;;4975419;28;20644;-86
2023/09/04 01:11:46;;;;;;;16.80;15.07;;;13.30;90.10;;;;;;4976656;28;20201;-86
2023/09/04 01:14:17;;;;;;;17.80;16.23;;;13.20;90.00;;;;;;4975231;28;20214;-86
2023/09/04 01:16:43;;;;;;;17.73;15.20;;;13.30;90.00;;;;;;4975370;28;20262;-86
2023/09/04 01:19:10;;;;;;;16.88;15.05;;;13.30;90.10;;;;;;4976572;28;20586;-86
2023/09/04 01:21:37;;;;;;;21.27;14.52;;;13.30;90.30;;;;;;4976407;28;20186;-86
2023/09/04 01:24:03;;;;;;;15.73;14.43;;;13.30;90.50;;;;;;4975215;28;20745;-86
2023/09/04 01:26:40;;;;;;;16.17;14.85;;;13.30;90.50;;;;;;4975255;28;20225;-87
2023/09/04 01:29:16;;;;;;;15.05;13.80;;;13.30;90.50;;;;;;4974041;28;20753;-86
2023/09/04 01:31:50;;;;;;;15.82;14.35;;;13.30;90.40;;;;;;4975087;28;20294;-86
2023/09/04 01:34:21;;;;;;;14.95;13.50;;;13.20;90.00;;;;;;4976391;28;20186;-85
2023/09/04 01:36:50;;;;;;;14.55;13.45;;;13.10;89.80;;;;;;4976201;28;20166;-86
2023/09/04 01:39:15;;;;;;;14.32;13.23;;;13.00;89.80;;;;;;4976442;28;20258;-87
2023/09/04 01:41:42;;;;;;;14.25;13.23;;;13.00;89.70;;;;;;4974929;28;20210;-86
2023/09/04 01:44:07;;;;;;;16.23;14.90;;;13.00;89.70;;;;;;4974829;28;20175;-86
2023/09/04 01:46:34;;;;;;;15.90;14.80;;;13.00;89.70;;;;;;4974889;28;20175;-86
2023/09/04 01:49:00;;;;;;;16.70;15.30;;;13.00;89.40;;;;;;4974732;28;20179;-86
2023/09/04 01:51:26;;;;;;;17.52;15.88;;;12.90;89.20;;;;;;4975820;28;20721;-86
2023/09/04 01:53:51;;;;;;;16.73;15.27;;;12.80;89.20;;;;;;4976072;28;20214;-86
2023/09/04 01:56:17;;;;;;;17.73;16.00;;;12.80;89.20;;;;;;4974671;28;20658;-86
2023/09/04 01:58:42;;;;;;;17.73;16.17;;;12.80;89.20;;;;;;4974644;28;20233;-86
2023/09/04 02:01:08;;;;;;;19.40;17.70;;;12.80;89.20;;;;;;4975884;28;20190;-86
2023/09/04 02:03:33;;;;;;;22.27;20.27;;;12.80;89.20;;;;;;4974472;28;20183;-86
2023/09/04 02:05:59;;;;;;;23.13;20.93;;;12.90;89.50;;;;;;4975681;28;20265;-86
2023/09/04 02:08:25;;;;;;;22.23;20.27;;;13.00;90.10;;;;;;4974401;28;20543;-86
2023/09/04 02:10:50;;;;;;;22.57;20.47;;;13.00;90.30;;;;;;4975374;28;20257;-86
2023/09/04 02:13:16;;;;;;;23.33;20.90;;;13.10;90.30;;;;;;4974255;28;20682;-86
2023/09/04 02:15:42;;;;;;;23.08;20.88;;;13.00;90.30;;;;;;4975387;28;20278;-86
2023/09/04 02:18:07;;;;;;;23.42;21.23;;;13.10;90.40;;;;;;4975533;28;20250;-86
2023/09/04 02:20:33;;;;;;;63.05;19.83;;;13.10;90.40;;;;;;4975224;28;20647;-87
2023/09/04 02:22:59;;;;;;;38.33;17.40;;;13.10;90.50;;;;;;4975359;28;20238;-87
2023/09/04 02:25:25;;;;;;;19.67;17.87;;;13.10;90.60;;;;;;4974125;28;20233;-86
2023/09/04 02:27:51;;;;;;;28.50;16.30;;;13.10;90.80;;;;;;4975247;28;20179;-87
2023/09/04 02:30:16;;;;;;;18.52;16.65;;;13.00;90.90;;;;;;4975144;28;20558;-86
2023/09/04 02:32:43;;;;;;;17.73;16.13;;;13.10;91.00;;;;;;4975130;28;20324;-86
2023/09/04 02:35:09;;;;;;;20.27;18.48;;;13.10;91.00;;;;;;4973919;28;20210;-86
2023/09/04 02:37:34;;;;;;;21.77;19.38;;;13.10;90.90;;;;;;4973897;28;20179;-86
2023/09/04 02:40:00;;;;;;;21.73;19.75;;;13.00;90.70;;;;;;4974686;28;20209;-86
2023/09/04 02:42:29;;;;;;;72.53;21.73;;;12.90;90.60;;;;;;4975237;28;20581;-86
2023/09/04 02:44:54;;;;;;;24.13;21.53;;;12.80;90.60;;;;;;4974974;28;20171;-86
2023/09/04 02:47:20;;;;;;;45.47;22.70;;;12.80;90.40;;;;;;4974884;28;20182;-87
2023/09/04 02:49:46;;;;;;;23.08;20.98;;;12.60;90.50;;;;;;4974874;28;20199;-86
2023/09/04 02:52:11;;;;;;;23.33;21.00;;;12.50;90.50;;;;;;4974759;28;20182;-86
2023/09/04 02:54:37;;;;;;;22.70;20.60;;;12.50;90.70;;;;;;4973463;28;20203;-86
2023/09/04 02:57:03;;;;;;;21.00;19.00;;;12.40;90.80;;;;;;4974909;28;20229;-86
2023/09/04 02:59:28;;;;;;;21.60;19.60;;;12.50;90.80;;;;;;4974637;28;20218;-86
2023/09/04 03:01:54;;;;;;;20.50;18.70;;;12.50;90.80;;;;;;4974722;28;20167;-87
2023/09/04 03:04:19;;;;;;;20.20;18.30;;;12.60;90.80;;;;;;4974641;28;20627;-86
2023/09/04 03:06:45;;;;;;;21.03;19.00;;;12.60;90.80;;;;;;4974646;28;20171;-86
2023/09/04 03:09:10;;;;;;;21.70;19.47;;;12.70;90.80;;;;;;4974638;28;20198;-86
2023/09/04 03:11:36;;;;;;;20.83;18.83;;;12.70;90.80;;;;;;4974826;28;20175;-86
2023/09/04 03:14:01;;;;;;;19.45;17.75;;;12.70;90.80;;;;;;4973319;28;20301;-86
2023/09/04 03:16:28;;;;;;;21.33;19.47;;;12.70;90.80;;;;;;4973338;28;20257;-86
2023/09/04 03:18:55;;;;;;;22.47;20.37;;;12.70;90.80;;;;;;4973384;28;20171;-86
2023/09/04 03:21:20;;;;;;;21.30;19.30;;;12.70;90.70;;;;;;4974380;28;20199;-86
2023/09/04 03:23:49;;;;;;;22.03;20.13;;;12.50;90.50;;;;;;4973158;28;20186;-86
2023/09/04 03:26:15;;;;;;;24.67;22.37;;;12.50;90.50;;;;;;4974386;28;20170;-86
2023/09/04 03:28:40;;;;;;;23.53;21.50;;;12.40;90.40;;;;;;4974368;28;20233;-86
2023/09/04 03:31:14;;;;;;;32.30;18.23;;;12.30;90.30;;;;;;4973059;28;20577;-87
2023/09/04 03:33:41;;;;;;;19.23;17.63;;;12.20;90.40;;;;;;4973183;28;20685;-86
2023/09/04 03:36:07;;;;;;;19.70;18.00;;;12.10;90.50;;;;;;4973057;28;20171;-86
2023/09/04 03:38:32;;;;;;;21.97;16.10;;;12.10;90.60;;;;;;4974569;28;20178;-87
2023/09/04 03:40:58;;;;;;;15.50;13.73;;;12.20;90.70;;;;;;4974126;28;20187;-86
2023/09/04 03:43:23;;;;;;;14.03;13.03;;;12.20;90.70;;;;;;4975449;28;20178;-86
2023/09/04 03:45:49;;;;;;;29.43;12.87;;;12.30;90.80;;;;;;4974475;28;20175;-86
2023/09/04 03:48:14;;;;;;;15.17;12.90;;;12.30;90.80;;;;;;4973029;28;20217;-86
2023/09/04 03:50:40;;;;;;;23.27;12.60;;;12.30;90.90;;;;;;4972896;28;20616;-86
2023/09/04 03:53:05;;;;;;;19.50;11.90;;;12.40;90.90;;;;;;4975053;28;20212;-86
2023/09/04 03:55:31;;;;;;;59.63;12.23;;;12.30;91.10;;;;;;4976852;28;20550;-86
2023/09/04 03:57:58;;;;;;;51.43;13.03;;;12.30;91.20;;;;;;4978020;28;20575;-86
2023/09/04 04:00:24;;;;;;;54.87;12.60;;;12.30;91.30;;;;;;4978176;28;20210;-86
2023/09/04 04:02:51;;;;;;;52.53;12.20;;;12.40;91.40;;;;;;4976799;28;20203;-86
2023/09/04 04:05:17;;;;;;;13.60;11.43;;;12.40;91.50;;;;;;4976748;28;20643;-87
2023/09/04 04:07:44;;;;;;;13.17;12.17;;;12.30;91.60;;;;;;4976625;28;20174;-86
2023/09/04 04:10:10;;;;;;;12.23;11.33;;;12.40;91.60;;;;;;4976616;28;20694;-86
2023/09/04 04:12:36;;;;;;;12.60;11.70;;;12.50;91.60;;;;;;4977669;28;20223;-86
2023/09/04 04:15:06;;;;;;;13.13;12.23;;;12.40;91.60;;;;;;4977666;28;20178;-86
2023/09/04 04:17:35;;;;;;;13.37;12.47;;;12.40;91.60;;;;;;4976526;28;20278;-87
2023/09/04 04:20:03;;;;;;;14.10;13.00;;;12.40;91.60;;;;;;4977514;28;20206;-86
2023/09/04 04:22:28;;;;;;;13.43;12.43;;;12.40;91.60;;;;;;4976378;28;20181;-86
2023/09/04 04:24:54;;;;;;;23.67;13.87;;;12.40;91.50;;;;;;4977553;28;20565;-86
2023/09/04 04:27:21;;;;;;;22.90;13.63;;;12.40;91.50;;;;;;4977736;28;20167;-87
2023/09/04 04:29:50;;;;;;;52.23;13.53;;;12.40;91.50;;;;;;4976149;28;20237;-86
2023/09/04 04:32:16;;;;;;;14.97;13.57;;;12.40;91.50;;;;;;4976227;28;20171;-87
2023/09/04 04:34:42;;;;;;;34.97;13.13;;;12.30;91.70;;;;;;4976158;28;20649;-87
2023/09/04 04:37:07;;;;;;;14.77;13.37;;;12.30;91.70;;;;;;4976157;28;20186;-86
2023/09/04 04:39:33;;;;;;;16.07;14.57;;;12.30;91.90;;;;;;4976008;28;20565;-86
2023/09/04 04:41:58;;;;;;;16.67;15.27;;;12.40;92.10;;;;;;4977416;28;20664;-87
2023/09/04 04:44:24;;;;;;;18.80;17.10;;;12.40;92.30;;;;;;4975920;28;20174;-87
2023/09/04 04:46:50;;;;;;;20.93;17.97;;;12.40;92.50;;;;;;4975910;28;20659;-87
2023/09/04 04:49:21;;;;;;;20.43;18.30;;;12.50;92.60;;;;;;4977023;28;20603;-86
2023/09/04 04:51:49;;;;;;;19.80;17.90;;;12.60;92.80;;;;;;4977084;28;20656;-87
2023/09/04 04:54:15;;;;;;;23.60;20.63;;;12.70;92.90;;;;;;4975711;28;20216;-86
2023/09/04 04:56:40;;;;;;;22.70;20.53;;;12.80;93.00;;;;;;4977198;28;20167;-86
2023/09/04 04:59:07;;;;;;;25.27;21.33;;;12.90;93.00;;;;;;4976918;28;20175;-87
2023/09/04 05:01:33;;;;;;;23.97;20.97;;;12.90;93.00;;;;;;4976841;28;20171;-87
2023/09/04 05:03:58;;;;;;;26.73;22.63;;;13.00;93.10;;;;;;4976802;28;20261;-87
2023/09/04 05:06:24;;;;;;;25.37;22.77;;;13.00;93.20;;;;;;4975686;28;20182;-86
2023/09/04 05:08:50;;;;;;;22.07;19.47;;;13.10;93.30;;;;;;4975618;28;20206;-86
2023/09/04 05:11:16;;;;;;;20.97;19.07;;;13.20;93.40;;;;;;4976608;28;20191;-86
2023/09/04 05:13:41;;;;;;;20.07;18.03;;;13.10;93.30;;;;;;4976585;28;20265;-86
2023/09/04 05:16:07;;;;;;;17.80;16.20;;;13.10;93.20;;;;;;4976606;28;20213;-86
2023/09/04 05:18:33;;;;;;;17.50;15.73;;;13.00;93.00;;;;;;4975322;28;20182;-86
2023/09/04 05:20:58;;;;;;;21.43;19.27;;;13.00;93.00;;;;;;4975332;28;20768;-86
2023/09/04 05:23:24;;;;;;;24.23;21.73;;;13.00;93.00;;;;;;4976831;28;20256;-86
2023/09/04 05:25:53;;;;;;;25.47;22.67;;;13.00;93.10;;;;;;4976413;28;20202;-86
2023/09/04 05:28:19;;;;;;;25.63;22.90;;;13.00;93.10;;;;;;4976427;28;20259;-86
2023/09/04 05:30:45;;;;;;;26.47;23.03;;;13.00;93.20;;;;;;4975168;28;20199;-86
2023/09/04 05:33:11;;;;;;;25.57;21.23;;;13.00;93.20;;;;;;4975106;28;20257;-86
2023/09/04 05:35:37;;;;;;;22.67;20.37;;;13.00;93.20;;;;;;4975134;28;20171;-86
2023/09/04 05:38:03;;;;;;;22.50;20.30;;;13.00;93.30;;;;;;4975298;28;20178;-87
2023/09/04 05:40:28;;;;;;;22.67;20.57;;;13.00;93.40;;;;;;4975072;28;20195;-87
2023/09/04 05:42:54;;;;;;;24.50;22.10;;;12.90;93.50;;;;;;4976033;28;20170;-86
2023/09/04 05:45:19;;;;;;;25.43;21.50;;;13.00;93.60;;;;;;4976064;28;20178;-86
2023/09/04 05:47:46;;;;;;;22.27;20.00;;;13.00;93.60;;;;;;4976009;28;20673;-86
2023/09/04 05:50:12;;;;;;;23.70;21.17;;;13.10;93.70;;;;;;4975946;28;20210;-86
2023/09/04 05:52:37;;;;;;;22.70;20.50;;;13.10;93.70;;;;;;4974609;28;20626;-86
2023/09/04 05:55:04;;;;;;;22.47;20.27;;;13.10;93.70;;;;;;4974696;28;20261;-86
2023/09/04 05:57:29;;;;;;;21.93;19.57;;;13.20;93.80;;;;;;4975784;28;20202;-86
2023/09/04 05:59:55;;;;;;;22.90;20.63;;;13.20;93.80;;;;;;4976136;28;20678;-86
2023/09/04 06:02:20;;;;;;;22.87;20.57;;;13.20;93.80;;;;;;4975774;28;20206;-86
2023/09/04 06:04:46;;;;;;;23.33;20.63;;;13.30;93.80;;;;;;4975979;28;20178;-86
2023/09/04 06:07:13;;;;;;;22.60;20.33;;;13.30;93.90;;;;;;4975637;28;20261;-86
2023/09/04 06:09:39;;;;;;;25.10;22.63;;;13.30;93.90;;;;;;4975610;28;20198;-86
2023/09/04 06:12:06;;;;;;;27.57;24.67;;;13.40;93.90;;;;;;4974414;28;20698;-86
2023/09/04 06:14:31;;;;;;;28.93;25.77;;;13.50;94.00;;;;;;4973859;28;20298;-86
2023/09/04 06:16:58;;;;;;;30.60;25.40;;;13.50;94.00;;;;;;4974040;28;20269;-86
2023/09/04 06:19:23;;;;;;;31.65;25.85;;;13.70;94.10;;;;;;4974052;28;20178;-86
2023/09/04 06:21:49;;;;;;;32.27;26.47;;;13.70;94.10;;;;;;4975430;28;20214;-86
2023/09/04 06:24:14;;;;;;;28.70;25.70;;;13.80;94.10;;;;;;4975357;28;20179;-86
2023/09/04 06:26:40;;;;;;;35.77;26.73;;;13.80;94.20;;;;;;4974107;28;20186;-86
2023/09/04 06:29:05;;;;;;;35.27;26.93;;;13.90;94.20;;;;;;4974018;28;20194;-86
2023/09/04 06:31:31;;;;;;;35.87;27.13;;;14.00;94.30;;;;;;4975240;28;20178;-86
2023/09/04 06:33:56;;;;;;;31.45;27.30;;;14.00;94.30;;;;;;4973841;28;20215;-87
2023/09/04 06:36:22;;;;;;;32.40;28.90;;;14.10;94.30;;;;;;4974018;28;20564;-86
2023/09/04 06:38:48;;;;;;;32.65;29.25;;;14.10;94.30;;;;;;4973721;28;20182;-86
2023/09/04 06:41:13;;;;;;;35.03;28.65;;;14.30;94.40;;;;;;4973730;28;20199;-86
2023/09/04 06:43:39;;;;;;;35.05;30.08;;;14.30;94.40;;;;;;4973862;28;20230;-86
2023/09/04 06:46:05;;;;;;;34.97;29.20;;;14.40;94.40;;;;;;4974980;28;20702;-86
2023/09/04 06:48:30;;;;;;;34.92;29.48;;;14.40;94.40;;;;;;4974920;28;20193;-86
2023/09/04 06:50:56;;;;;;;42.13;31.27;;;14.70;94.60;;;;;;4973721;28;20206;-86
2023/09/04 06:53:21;;;;;;;39.50;34.92;;;14.80;94.60;;;;;;4973594;28;20745;-86
2023/09/04 06:55:48;;;;;;;44.13;34.80;;;14.90;94.50;;;;;;4975124;28;20218;-86
2023/09/04 06:58:13;;;;;;;41.28;35.53;;;14.90;94.50;;;;;;4973608;28;20609;-86
2023/09/04 07:00:39;;;;;;;38.60;33.72;;;15.00;94.50;;;;;;4973480;28;20234;-86
2023/09/04 07:03:05;;;;;;;40.25;34.22;;;15.00;94.40;;;;;;4973542;28;20182;-86
2023/09/04 07:05:31;;;;;;;38.60;34.50;;;15.00;94.40;;;;;;4973485;28;20222;-86
2023/09/04 07:07:57;;;;;;;38.75;34.58;;;15.10;94.40;;;;;;4974693;28;20171;-86
2023/09/04 07:10:23;;;;;;;37.70;33.70;;;15.20;94.40;;;;;;4974602;28;20253;-87
2023/09/04 07:12:50;;;;;;;34.88;29.55;;;15.20;94.40;;;;;;4974805;28;20233;-86
2023/09/04 07:15:16;;;;;;;35.42;30.98;;;15.30;94.40;;;;;;4974625;28;20179;-87
2023/09/04 07:17:41;;;;;;;33.17;29.50;;;15.40;94.40;;;;;;4973380;28;20269;-87
2023/09/04 07:20:08;;;;;;;32.53;29.08;;;15.60;94.20;;;;;;4973223;28;20209;-86
2023/09/04 07:22:33;;;;;;;32.08;26.73;;;15.60;93.90;;;;;;4974649;28;20262;-86
2023/09/04 07:24:59;;;;;;;31.38;27.48;;;15.80;93.60;;;;;;4973383;28;20209;-86
2023/09/04 07:27:27;;;;;;;28.38;25.52;;;15.90;93.30;;;;;;4972725;28;20178;-87
2023/09/04 07:29:53;;;;;;;28.08;25.17;;;16.00;93.00;;;;;;4974646;28;20212;-86
2023/09/04 07:32:18;;;;;;;28.92;23.35;;;16.20;92.50;;;;;;4973348;28;20241;-87
2023/09/04 07:34:44;;;;;;;25.70;23.20;;;16.20;92.10;;;;;;4973141;28;20752;-86
2023/09/04 07:37:09;;;;;;;26.38;22.42;;;16.20;91.80;;;;;;4974845;28;20254;-86
2023/09/04 07:39:35;;;;;;;26.23;21.98;;;16.40;91.50;;;;;;4974319;28;20192;-86
2023/09/04 07:42:01;;;;;;;27.27;22.17;;;16.50;91.10;;;;;;4973185;28;20222;-87
2023/09/04 07:44:26;;;;;;;24.67;21.60;;;16.70;91.00;;;;;;4976144;28;20205;-87
2023/09/04 07:46:52;;;;;;;24.77;22.35;;;16.70;90.70;;;;;;4974226;28;20170;-87
2023/09/04 07:49:17;;;;;;;23.58;21.20;;;16.80;90.30;;;;;;4974157;28;20689;-87
2023/09/04 07:51:43;;;;;;;23.33;21.05;;;16.80;90.10;;;;;;4972924;28;20265;-87
2023/09/04 07:54:11;;;;;;;23.45;20.95;;;17.00;89.80;;;;;;4972906;28;20198;-87
2023/09/04 07:56:37;;;;;;;23.35;21.15;;;17.10;90.00;;;;;;4974094;28;20254;-88
2023/09/04 07:59:04;;;;;;;24.00;20.92;;;17.20;89.90;;;;;;4974352;28;20639;-88
2023/09/04 08:01:30;;;;;;;22.40;20.10;;;17.20;89.90;;;;;;4974441;28;20595;-88
2023/09/04 08:03:56;;;;;;;26.42;20.75;;;17.30;89.90;;;;;;4974532;28;20203;-88
2023/09/04 08:06:21;;;;;;;23.15;19.90;;;17.30;88.60;;;;;;4974081;28;20179;-86
2023/09/04 08:08:47;;;;;;;19.55;17.73;;;17.30;88.30;;;;;;4972821;28;20217;-87
2023/09/04 08:11:13;;;;;;;19.38;17.58;;;17.40;88.40;;;;;;4974016;28;20207;-87
2023/09/04 08:13:38;;;;;;;19.92;18.02;;;17.70;87.80;;;;;;4974008;28;20707;-87
2023/09/04 08:16:04;;;;;;;19.92;18.10;;;17.80;87.60;;;;;;4973986;28;20310;-86
2023/09/04 08:18:30;;;;;;;17.70;16.02;;;17.80;87.10;;;;;;4972820;28;20179;-87
2023/09/04 08:20:55;;;;;;;18.15;16.55;;;17.90;86.60;;;;;;4972474;28;20226;-87
2023/09/04 08:23:21;;;;;;;19.10;17.02;;;17.90;84.90;;;;;;4973881;28;20245;-86
2023/09/04 08:25:46;;;;;;;18.55;17.05;;;18.00;84.70;;;;;;4973947;28;20686;-86
2023/09/04 08:28:12;;;;;;;18.83;17.30;;;18.10;84.90;;;;;;4973865;28;20206;-87
2023/09/04 08:30:37;;;;;;;19.08;17.38;;;18.20;85.80;;;;;;4974086;28;20198;-86
2023/09/04 08:33:03;;;;;;;19.65;17.80;;;18.10;84.90;;;;;;4972464;28;20210;-87
2023/09/04 08:35:29;;;;;;;19.40;17.70;;;18.20;85.30;;;;;;4973892;28;20253;-86
2023/09/04 08:37:56;;;;;;;19.55;17.67;;;18.40;85.50;;;;;;4973965;28;20190;-86
2023/09/04 08:40:22;;;;;;;18.38;16.77;;;18.40;85.90;;;;;;4976010;28;20203;-86
2023/09/04 08:42:50;;;;;;;18.23;16.33;;;18.60;86.10;;;;;;4976138;28;20178;-86
2023/09/04 08:45:17;;;;;;;19.42;17.63;;;18.70;85.40;;;;;;4977221;28;20258;-86
2023/09/04 08:47:43;;;;;;;17.38;15.75;;;18.70;84.30;;;;;;4977502;28;20178;-89
2023/09/04 08:50:10;;;;;;;16.67;15.13;;;19.00;84.60;;;;;;4977592;28;20659;-85
2023/09/04 08:52:37;;;;;;;18.45;16.95;;;19.20;85.00;;;;;;4975753;28;20183;-87
2023/09/04 08:55:07;;;;;;;15.95;14.75;;;19.10;82.20;;;;;;4975897;28;20218;-87
2023/09/04 08:57:33;;;;;;;17.48;15.88;;;19.20;82.90;;;;;;4975837;28;20175;-87
2023/09/04 08:59:59;;;;;;;17.23;15.63;;;19.20;82.20;;;;;;4976954;28;20187;-87
2023/09/04 09:02:25;;;;;;;18.83;17.10;;;19.30;82.20;;;;;;4976877;28;20174;-86
2023/09/04 09:04:52;;;;;;;17.50;16.23;;;19.40;80.30;;;;;;4975761;28;20175;-86
2023/09/04 09:07:20;;;;;;;16.80;15.40;;;19.40;79.00;;;;;;4976776;28;20230;-86
2023/09/04 09:09:50;;;;;;;18.27;16.73;;;19.60;79.60;;;;;;4975526;28;20203;-86
2023/09/04 09:12:16;;;;;;;18.60;17.40;;;19.60;79.20;;;;;;4977278;28;20503;-86
2023/09/04 09:14:42;;;;;;;18.45;16.95;;;19.70;77.20;;;;;;4976568;28;20208;-86
2023/09/04 09:17:15;;;;;;;18.77;17.27;;;19.70;76.90;;;;;;4976584;28;20171;-86
2023/09/04 09:19:43;;;;;;;18.38;16.95;;;19.80;76.70;;;;;;4976431;28;20203;-86
2023/09/04 09:22:14;;;;;;;18.73;17.23;;;19.90;76.80;;;;;;4976543;28;20171;-85
2023/09/04 09:24:56;;;;;;;20.60;18.90;;;20.00;76.20;;;;;;4975338;28;20226;-86
2023/09/04 09:27:23;;;;;;;19.00;17.50;;;20.10;75.50;;;;;;4976508;28;20175;-86
2023/09/04 09:29:50;;;;;;;20.13;18.73;;;20.20;76.20;;;;;;4976318;28;20277;-84
2023/09/04 09:32:17;;;;;;;20.65;18.98;;;20.20;71.40;;;;;;4975254;28;20174;-85
2023/09/04 09:34:53;;;;;;;19.42;17.92;;;20.30;72.90;;;;;;4976603;28;20207;-86
2023/09/04 09:37:20;;;;;;;19.80;18.50;;;20.50;72.20;;;;;;4976314;28;20163;-86
2023/09/04 09:39:46;;;;;;;19.27;17.65;;;20.60;71.80;;;;;;4976597;28;20241;-85
2023/09/04 09:42:12;;;;;;;20.13;18.63;;;20.70;73.60;;;;;;4976166;28;20175;-85
2023/09/04 09:44:38;;;;;;;18.52;17.27;;;20.80;72.50;;;;;;4974913;28;20553;-85
2023/09/04 09:47:13;;;;;;;18.40;17.00;;;21.00;73.30;;;;;;4974820;28;20178;-85
2023/09/04 09:49:40;;;;;;;20.10;18.65;;;21.10;72.60;;;;;;4974087;28;20194;-85
2023/09/04 09:52:07;;;;;;;20.65;19.13;;;21.10;70.50;;;;;;4974524;28;20218;-85
2023/09/04 09:54:38;;;;;;;20.33;18.73;;;21.20;71.10;;;;;;4975772;28;20257;-85
2023/09/04 09:57:07;;;;;;;20.77;19.35;;;21.10;68.70;;;;;;4974628;28;20548;-85
2023/09/04 09:59:34;;;;;;;21.00;19.60;;;21.30;68.90;;;;;;4974534;28;20286;-85
2023/09/04 10:02:01;;;;;;;20.75;19.40;;;21.40;68.70;;;;;;4975728;28;20593;-85
2023/09/04 10:04:27;;;;;;;21.10;19.38;;;21.20;69.20;;;;;;4974478;28;20233;-85
2023/09/04 10:06:54;;;;;;;19.80;18.40;;;21.50;69.00;;;;;;4975719;28;20675;-85
2023/09/04 10:09:23;;;;;;;19.40;18.20;;;21.70;68.70;;;;;;4975529;28;20175;-85
2023/09/04 10:11:59;;;;;;;19.40;18.08;;;21.70;67.10;;;;;;4975624;28;20171;-85
2023/09/04 10:14:38;;;;;;;20.17;18.88;;;21.80;63.60;;;;;;4975677;28;20286;-84
2023/09/04 10:17:08;;;;;;;19.13;17.70;;;21.90;66.40;;;;;;4974467;28;20557;-85
2023/09/04 10:19:37;;;;;;;19.95;18.55;;;22.10;68.00;;;;;;4974179;28;20282;-85
2023/09/04 10:22:06;;;;;;;20.35;19.05;;;22.10;64.70;;;;;;4975638;28;20274;-85
2023/09/04 10:24:43;;;;;;;19.67;18.42;;;22.10;65.70;;;;;;4976340;28;20181;-85
2023/09/04 10:27:09;;;;;;;20.10;18.73;;;22.10;64.30;;;;;;4974978;28;20639;-85
2023/09/04 10:29:46;;;;;;;20.30;19.00;;;22.30;64.70;;;;;;4974166;28;20206;-85
2023/09/04 10:32:13;;;;;;;20.48;19.08;;;22.50;64.40;;;;;;4975369;28;20159;-85
2023/09/04 10:34:40;;;;;;;19.80;18.50;;;22.50;63.00;;;;;;4973852;28;20213;-86
2023/09/04 10:37:09;;;;;;;19.60;18.25;;;22.70;65.00;;;;;;4973961;28;20179;-86
2023/09/04 10:39:35;;;;;;;19.15;17.95;;;22.80;65.90;;;;;;4975160;28;20194;-85
2023/09/04 10:42:02;;;;;;;20.90;19.40;;;22.70;63.30;;;;;;4975203;28;20163;-85
2023/09/04 10:44:48;;;;;;;20.40;19.00;;;22.60;64.40;;;;;;4975101;28;20721;-85
2023/09/04 10:47:14;;;;;;;20.65;19.17;;;22.60;64.50;;;;;;4975183;28;20205;-85
2023/09/04 10:49:42;;;;;;;20.55;19.15;;;22.80;64.10;;;;;;4975625;28;20253;-86
2023/09/04 10:52:08;;;;;;;19.75;18.42;;;22.80;63.60;;;;;;4975038;28;20178;-85
2023/09/04 10:54:33;;;;;;;19.60;18.33;;;22.80;63.80;;;;;;4976100;28;20198;-86
2023/09/04 10:57:02;;;;;;;20.13;18.83;;;23.10;64.60;;;;;;4974719;28;20181;-86
2023/09/04 10:59:28;;;;;;;19.05;17.65;;;23.10;64.60;;;;;;4976004;28;20609;-84
2023/09/04 11:01:54;;;;;;;20.00;18.60;;;23.40;63.40;;;;;;4975913;28;20195;-86
2023/09/04 11:04:42;;;;;;;19.67;18.25;;;23.50;63.00;;;;;;4975933;28;20241;-85
2023/09/04 11:07:20;;;;;;;19.27;18.02;;;23.00;62.90;;;;;;4976320;28;20254;-85
2023/09/04 11:09:52;;;;;;;19.80;18.40;;;23.20;62.80;;;;;;4974884;28;20628;-85
2023/09/04 11:12:19;;;;;;;19.63;18.42;;;23.10;62.10;;;;;;4974377;28;20182;-85
2023/09/04 11:14:47;;;;;;;19.38;17.98;;;23.60;62.80;;;;;;4973850;28;20203;-86
2023/09/04 11:17:15;;;;;;;18.95;17.67;;;23.60;63.30;;;;;;4974962;28;20290;-85
2023/09/04 11:19:41;;;;;;;18.27;17.17;;;23.40;61.30;;;;;;4973746;28;20214;-86
2023/09/04 11:22:19;;;;;;;18.65;17.45;;;23.40;62.10;;;;;;4975347;28;20209;-85
2023/09/04 11:24:46;;;;;;;19.00;17.63;;;23.50;61.20;;;;;;4973474;28;20298;-86
2023/09/04 11:27:11;;;;;;;20.33;18.40;;;23.90;61.80;;;;;;4973450;28;20214;-85
2023/09/04 11:29:37;;;;;;;20.27;18.77;;;24.00;59.50;;;;;;4975194;28;20217;-86
2023/09/04 11:32:05;;;;;;;18.50;17.20;;;23.80;60.30;;;;;;4975521;28;20186;-86
2023/09/04 11:34:31;;;;;;;18.88;17.63;;;23.90;62.40;;;;;;4973584;28;20209;-86
2023/09/04 11:36:56;;;;;;;19.25;17.52;;;24.10;63.30;;;;;;4974352;28;20174;-86
2023/09/04 11:39:22;;;;;;;18.83;17.58;;;24.20;60.90;;;;;;4973021;28;20174;-87
2023/09/04 11:41:49;;;;;;;18.60;17.10;;;23.50;60.70;;;;;;4974918;28;20175;-86
2023/09/04 11:44:15;;;;;;;18.40;17.08;;;23.20;61.10;;;;;;4976558;28;20171;-86
2023/09/04 11:46:42;;;;;;;18.17;17.00;;;23.70;60.10;;;;;;4973019;28;20185;-86
2023/09/04 11:49:08;;;;;;;17.45;16.23;;;23.70;61.20;;;;;;4973338;28;20554;-86
2023/09/04 11:51:36;;;;;;;18.73;17.45;;;23.90;59.10;;;;;;4974357;28;20171;-86
2023/09/04 11:54:06;;;;;;;18.40;16.75;;;23.90;60.80;;;;;;4974792;28;20199;-86
2023/09/04 11:56:32;;;;;;;18.33;16.88;;;24.20;60.10;;;;;;4974454;28;20171;-86
2023/09/04 11:58:57;;;;;;;17.92;16.50;;;24.40;58.40;;;;;;4974135;28;20249;-86
2023/09/04 12:01:23;;;;;;;18.55;17.15;;;24.60;55.60;;;;;;5309164;22;20627;-86
2023/09/04 12:03:52;;;;;;;17.85;16.55;;;24.80;56.40;;;;;;5013840;28;20655;-86
2023/09/04 12:06:29;;;;;;;17.75;16.63;;;24.90;55.80;;;;;;5012298;28;20602;-86
2023/09/04 12:08:55;;;;;;;18.67;17.30;;;24.50;57.50;;;;;;5013006;28;20162;-86
2023/09/04 12:11:21;;;;;;;18.50;17.20;;;24.60;57.30;;;;;;5011599;28;20197;-86
2023/09/04 12:13:47;;;;;;;18.65;17.25;;;24.50;55.10;;;;;;5013452;28;20734;-86
2023/09/04 12:16:17;;;;;;;18.63;17.20;;;24.20;56.30;;;;;;5017103;28;20248;-86
2023/09/04 12:18:42;;;;;;;18.42;17.10;;;24.40;56.80;;;;;;5017041;28;20542;-86
2023/09/04 12:21:09;;;;;;;18.70;17.30;;;24.90;57.10;;;;;;5015518;28;20201;-86
2023/09/04 12:23:43;;;;;;;18.38;17.13;;;24.80;57.40;;;;;;5015851;28;20566;-86
2023/09/04 12:26:09;;;;;;;18.75;17.48;;;24.30;56.40;;;;;;5016775;28;20158;-86